createdAt,value
2024-04-12T00:01:46.657Z,100.00
2024-04-12T00:04:18.782Z,100.00
2024-04-12T00:07:01.313Z,100.00
2024-04-12T00:09:30.891Z,100.00
2024-04-12T00:12:02.132Z,100.00
2024-04-12T00:14:29.981Z,100.00
2024-04-12T00:16:59.221Z,100.00
2024-04-12T00:19:27.357Z,100.00
2024-04-12T00:22:00.999Z,100.00
2024-04-12T00:24:31.196Z,100.00
2024-04-12T00:27:00.571Z,100.00
2024-04-12T00:29:40.513Z,100.00
2024-04-12T00:32:17.905Z,100.00
2024-04-12T00:34:49.788Z,100.00
2024-04-12T00:37:18.971Z,100.00
2024-04-12T00:39:52.092Z,100.00
2024-04-12T00:42:34.349Z,100.00
2024-04-12T00:45:04.944Z,100.00
2024-04-12T00:47:36.076Z,100.00
2024-04-12T00:50:06.272Z,100.00
2024-04-12T00:52:37.013Z,100.00
2024-04-12T00:55:10.097Z,100.00
2024-04-12T00:57:41.978Z,100.00
2024-04-12T01:00:11.825Z,100.00
2024-04-12T01:02:44.849Z,100.00
2024-04-12T01:05:21.174Z,100.00
2024-04-12T01:07:57.676Z,100.00
2024-04-12T01:10:28.022Z,100.00
2024-04-12T01:12:58.524Z,100.00
2024-04-12T01:15:34.009Z,100.00
2024-04-12T01:18:06.643Z,100.00
2024-04-12T01:20:36.849Z,100.00
2024-04-12T01:23:06.546Z,100.00
2024-04-12T01:25:35.834Z,100.00
2024-04-12T01:28:05.046Z,100.00
2024-04-12T01:30:32.866Z,100.00
2024-04-12T01:33:00.983Z,100.00
2024-04-12T01:35:28.572Z,100.00
2024-04-12T01:37:59.137Z,100.00
2024-04-12T01:40:27.427Z,100.00
2024-04-12T01:42:55.220Z,100.00
2024-04-12T01:45:29.096Z,100.00
2024-04-12T01:47:57.625Z,100.00
2024-04-12T01:50:25.741Z,100.00
2024-04-12T01:52:57.071Z,100.00
2024-04-12T01:55:26.593Z,100.00
2024-04-12T01:58:02.392Z,100.00
2024-04-12T02:00:29.937Z,100.00
2024-04-12T02:03:01.260Z,100.00
2024-04-12T02:05:30.990Z,100.00
2024-04-12T02:08:00.569Z,100.00
2024-04-12T02:10:28.305Z,100.00
2024-04-12T02:12:55.770Z,100.00
2024-04-12T02:15:29.080Z,100.00
2024-04-12T02:17:59.788Z,100.00
2024-04-12T02:20:35.266Z,100.00
2024-04-12T02:23:07.151Z,100.00
2024-04-12T02:25:36.855Z,100.00
2024-04-12T02:28:09.832Z,100.00
2024-04-12T02:30:55.319Z,100.00
2024-04-12T02:33:32.031Z,100.00
2024-04-12T02:36:13.471Z,100.00
2024-04-12T02:38:42.765Z,100.00
2024-04-12T02:41:15.510Z,100.00
2024-04-12T02:43:46.292Z,100.00
2024-04-12T02:46:13.929Z,100.00
2024-04-12T02:48:45.008Z,100.00
2024-04-12T02:51:19.085Z,100.00
2024-04-12T02:53:49.823Z,100.00
2024-04-12T02:56:19.079Z,100.00
2024-04-12T02:58:48.261Z,100.00
2024-04-12T03:01:28.162Z,100.00
2024-04-12T03:03:58.248Z,100.00
2024-04-12T03:06:34.138Z,100.00
2024-04-12T03:09:03.197Z,100.00
2024-04-12T03:11:36.538Z,100.00
2024-04-12T03:14:11.956Z,100.00
2024-04-12T03:16:44.863Z,100.00
2024-04-12T03:19:15.454Z,100.00
2024-04-12T03:21:43.321Z,100.00
2024-04-12T03:24:11.928Z,100.00
2024-04-12T03:26:39.746Z,100.00
2024-04-12T03:29:07.593Z,100.00
2024-04-12T03:31:40.796Z,100.00
2024-04-12T03:34:09.523Z,100.00
2024-04-12T03:36:38.694Z,100.00
2024-04-12T03:39:21.216Z,100.00
2024-04-12T03:41:52.319Z,100.00
2024-04-12T03:44:20.477Z,100.00
2024-04-12T03:46:51.775Z,100.00
2024-04-12T03:49:23.956Z,100.00
2024-04-12T03:51:55.715Z,100.00
2024-04-12T03:54:24.837Z,100.00
2024-04-12T03:56:53.494Z,100.00
2024-04-12T03:59:22.631Z,100.00
2024-04-12T04:01:50.194Z,100.00
2024-04-12T04:04:18.960Z,100.00
2024-04-12T04:06:47.302Z,100.00
2024-04-12T04:09:15.182Z,100.00
2024-04-12T04:11:45.372Z,100.00
2024-04-12T04:14:14.874Z,100.00
2024-04-12T04:16:42.534Z,100.00
2024-04-12T04:19:13.919Z,100.00
2024-04-12T04:21:42.686Z,100.00
2024-04-12T04:24:10.359Z,100.00
2024-04-12T04:26:38.212Z,100.00
2024-04-12T04:29:13.135Z,100.00
2024-04-12T04:31:51.417Z,100.00
2024-04-12T04:34:20.790Z,100.00
2024-04-12T04:36:50.614Z,100.00
2024-04-12T04:39:19.093Z,100.00
2024-04-12T04:41:48.049Z,100.00
2024-04-12T04:44:19.117Z,100.00
2024-04-12T04:46:51.520Z,100.00
2024-04-12T04:49:21.129Z,100.00
2024-04-12T04:51:50.244Z,100.00
2024-04-12T04:54:19.814Z,100.00
2024-04-12T04:56:48.678Z,100.00
2024-04-12T04:59:29.838Z,100.00
2024-04-12T05:01:57.933Z,100.00
2024-04-12T05:04:26.729Z,100.00
2024-04-12T05:06:54.820Z,100.00
2024-04-12T05:09:23.941Z,100.00
2024-04-12T05:11:51.506Z,100.00
2024-04-12T05:14:38.271Z,100.00
2024-04-12T05:17:16.477Z,100.00
2024-04-12T05:19:45.172Z,100.00
2024-04-12T05:22:14.023Z,100.00
2024-04-12T05:24:43.038Z,100.00
2024-04-12T05:27:13.185Z,100.00
2024-04-12T05:29:42.386Z,100.00
2024-04-12T05:32:11.608Z,100.00
2024-04-12T08:44:22.378Z,100.00
2024-04-12T08:46:51.395Z,100.00
2024-04-12T09:07:07.624Z,89.16
2024-04-12T09:09:36.212Z,88.06
2024-04-12T09:12:04.021Z,88.69
2024-04-12T09:14:34.773Z,88.35
2024-04-12T09:17:07.704Z,86.89
2024-04-12T09:19:40.148Z,85.37
2024-04-12T09:22:11.373Z,84.57
2024-04-12T09:24:41.265Z,84.63
2024-04-12T09:27:12.033Z,84.07
2024-04-12T09:29:45.899Z,87.75
2024-04-12T09:32:32.381Z,85.23
2024-04-12T09:35:03.927Z,87.75
2024-04-12T09:37:45.304Z,86.81
2024-04-12T09:40:13.874Z,86.29
2024-04-12T09:42:57.129Z,85.67
2024-04-12T09:45:47.503Z,86.89
2024-04-12T09:48:38.402Z,83.34
2024-04-12T09:51:25.647Z,82.30
2024-04-12T09:54:12.268Z,84.40
2024-04-12T09:56:59.464Z,81.92
2024-04-12T09:59:49.536Z,80.94
2024-04-12T10:02:40.550Z,82.81
2024-04-12T10:05:28.845Z,83.40
2024-04-12T10:08:21.225Z,82.83
2024-04-12T10:11:09.160Z,83.42
2024-04-12T10:13:58.141Z,81.74
2024-04-12T10:16:44.232Z,85.48
2024-04-12T10:19:31.845Z,85.36
2024-04-12T10:22:32.698Z,84.26
2024-04-12T10:25:23.259Z,84.42
2024-04-12T10:28:11.400Z,82.49
2024-04-12T10:31:05.976Z,79.09
2024-04-12T10:34:03.299Z,82.32
2024-04-12T10:37:03.345Z,78.56
2024-04-12T10:39:35.179Z,77.80
2024-04-12T10:42:06.660Z,81.21
2024-04-12T10:44:34.172Z,81.53
2024-04-12T10:47:01.608Z,82.02
2024-04-12T10:49:29.245Z,82.92
2024-04-12T10:51:57.397Z,82.94
2024-04-12T10:54:25.588Z,81.50
2024-04-12T10:56:57.760Z,78.87
2024-04-12T10:59:31.789Z,78.00
2024-04-12T11:02:01.497Z,76.73
2024-04-12T11:04:52.678Z,76.05
2024-04-12T11:07:23.256Z,73.90
2024-04-12T11:10:04.831Z,75.24
2024-04-12T11:12:41.613Z,75.25
2024-04-12T11:15:21.890Z,78.30
2024-04-12T11:18:15.722Z,77.08
2024-04-12T11:21:10.298Z,78.73
2024-04-12T11:23:58.245Z,75.00
2024-04-12T11:26:44.707Z,75.86
2024-04-12T11:29:38.583Z,78.03
2024-04-12T11:32:13.527Z,78.77
2024-04-12T11:34:46.673Z,78.46
2024-04-12T11:37:16.835Z,80.23
2024-04-12T11:39:46.738Z,80.05
2024-04-12T11:42:20.275Z,80.09
2024-04-12T11:44:55.080Z,79.66
2024-04-12T11:47:25.105Z,80.15
2024-04-12T11:49:59.324Z,79.11
2024-04-12T11:52:27.519Z,78.16
2024-04-12T11:54:56.971Z,79.57
2024-04-12T11:57:34.155Z,82.89
2024-04-12T12:00:10.196Z,80.79
2024-04-12T12:02:45.252Z,78.94
2024-04-12T12:05:19.363Z,79.43
2024-04-12T12:07:48.003Z,78.67
2024-04-12T12:10:16.536Z,79.59
2024-04-12T12:12:45.114Z,78.94
2024-04-12T12:15:16.127Z,78.13
2024-04-12T12:17:43.958Z,79.92
2024-04-12T12:20:11.556Z,79.89
2024-04-12T12:22:39.860Z,79.02
2024-04-12T12:25:09.364Z,78.78
2024-04-12T12:27:37.220Z,80.02
2024-04-12T12:30:15.145Z,80.16
2024-04-12T12:32:46.309Z,78.87
2024-04-12T12:35:20.301Z,82.18
2024-04-12T12:37:49.747Z,83.02
2024-04-12T12:40:23.949Z,81.40
2024-04-12T12:42:56.677Z,81.19
2024-04-12T12:45:25.987Z,80.64
2024-04-12T12:47:54.868Z,81.50
2024-04-12T12:50:24.630Z,82.11
2024-04-12T12:52:53.018Z,81.86
2024-04-12T12:55:24.934Z,81.11
2024-04-12T12:58:13.003Z,80.89
2024-04-12T13:00:44.104Z,77.74
2024-04-12T13:03:13.715Z,78.21
2024-04-12T13:05:41.892Z,79.27
2024-04-12T13:08:09.503Z,78.97
2024-04-12T13:10:39.372Z,81.66
2024-04-12T13:13:07.234Z,81.78
2024-04-12T13:15:35.062Z,81.90
2024-04-12T13:18:03.329Z,79.75
2024-04-12T13:20:37.473Z,79.39
2024-04-12T13:23:05.182Z,80.03
2024-04-12T13:25:32.775Z,81.21
2024-04-12T13:28:05.279Z,82.52
2024-04-12T13:30:36.822Z,82.32
2024-04-12T13:33:04.594Z,83.00
2024-04-12T13:35:32.976Z,81.82
2024-04-12T13:38:01.152Z,80.57
2024-04-12T13:40:28.692Z,83.83
2024-04-12T13:42:56.178Z,84.74
2024-04-12T13:45:41.992Z,81.57
2024-04-12T13:48:28.619Z,81.71
2024-04-12T13:50:56.798Z,81.08
2024-04-12T13:53:33.908Z,81.75
2024-04-12T13:56:22.455Z,82.66
2024-04-12T13:58:53.561Z,79.23
2024-04-12T14:01:24.135Z,82.57
2024-04-12T14:03:55.822Z,81.81
2024-04-12T14:06:26.259Z,80.72
2024-04-12T14:08:56.221Z,82.76
2024-04-12T14:11:25.207Z,84.59
2024-04-12T14:13:52.720Z,82.54
2024-04-12T14:16:20.942Z,81.38
2024-04-12T14:18:49.640Z,80.58
2024-04-12T14:21:18.702Z,82.23
2024-04-12T14:23:47.344Z,81.02
2024-04-12T14:26:15.488Z,79.51
2024-04-12T14:28:43.781Z,82.48
2024-04-12T14:31:11.986Z,84.78
2024-04-12T14:33:40.082Z,84.36
2024-04-12T14:36:08.176Z,81.39
2024-04-12T14:38:41.575Z,82.01
2024-04-12T14:41:09.384Z,84.12
2024-04-12T14:43:36.902Z,83.42
2024-04-12T14:46:07.695Z,83.47
2024-04-12T14:48:38.472Z,83.99
2024-04-12T14:51:07.366Z,81.91
2024-04-12T14:53:35.013Z,78.21
2024-04-12T14:56:02.536Z,80.14
2024-04-12T14:58:30.000Z,79.26
2024-04-12T15:00:57.544Z,78.20
2024-04-12T15:03:43.779Z,80.01
2024-04-12T15:06:29.826Z,79.12
2024-04-12T15:09:20.097Z,83.90
2024-04-12T15:12:06.369Z,83.39
2024-04-12T15:14:52.672Z,82.61
2024-04-12T15:17:38.887Z,85.27
2024-04-12T15:20:25.725Z,83.01
2024-04-12T15:23:11.751Z,81.68
2024-04-12T15:25:58.163Z,84.32
2024-04-12T15:28:44.504Z,84.58
2024-04-12T15:31:31.052Z,82.81
2024-04-12T15:34:18.681Z,82.80
2024-04-12T15:41:53.262Z,78.84
2024-04-12T15:44:39.313Z,78.41
2024-04-12T15:47:06.844Z,81.12
2024-04-12T15:49:43.491Z,79.40
2024-04-12T15:52:14.420Z,76.66
2024-04-12T15:54:53.323Z,80.55
2024-04-12T15:57:40.539Z,79.17
2024-04-12T16:00:27.490Z,81.97
2024-04-12T16:03:14.750Z,82.82
2024-04-12T16:06:01.802Z,79.83
2024-04-12T16:08:49.023Z,81.67
2024-04-12T16:11:16.912Z,79.54
2024-04-12T16:13:45.004Z,80.25
2024-04-12T16:16:12.716Z,81.33
2024-04-12T16:18:40.315Z,80.43
2024-04-12T16:21:08.035Z,82.43
2024-04-12T16:23:36.507Z,80.93
2024-04-12T16:26:05.296Z,82.47
2024-04-12T16:28:34.960Z,80.21
2024-04-12T16:31:05.719Z,82.10
2024-04-12T16:33:34.875Z,78.86
2024-04-12T16:36:02.935Z,85.10
2024-04-12T16:38:30.493Z,84.46
2024-04-12T16:40:57.959Z,84.06
2024-04-12T16:43:25.423Z,85.39
2024-04-12T16:45:52.907Z,87.31
2024-04-12T16:48:20.449Z,87.08
2024-04-12T16:50:48.181Z,89.02
2024-04-12T16:53:15.857Z,89.09
2024-04-12T16:55:43.347Z,89.61
2024-04-12T16:58:11.038Z,87.64
2024-04-12T17:00:40.718Z,84.81
2024-04-12T17:03:10.304Z,87.80
2024-04-12T17:05:38.161Z,87.21
2024-04-12T17:08:05.935Z,87.59
2024-04-12T17:10:33.964Z,88.54
2024-04-12T17:13:01.474Z,88.84
2024-04-12T17:15:29.395Z,89.67
2024-04-12T17:17:57.233Z,88.97
2024-04-12T17:20:24.872Z,88.10
2024-04-12T17:22:52.353Z,87.85
2024-04-12T17:25:20.477Z,88.52
2024-04-12T17:27:53.108Z,91.27
2024-04-12T17:30:21.105Z,90.47
2024-04-12T17:32:48.816Z,92.49
2024-04-12T17:35:19.223Z,90.45
2024-04-12T17:37:46.800Z,89.77
2024-04-12T17:40:16.206Z,89.84
2024-04-12T17:42:43.805Z,93.45
2024-04-12T17:45:11.521Z,92.91
2024-04-12T17:47:39.104Z,91.79
2024-04-12T17:50:12.206Z,93.44
2024-04-12T17:52:41.273Z,93.87
2024-04-12T17:55:10.298Z,93.03
2024-04-12T17:57:37.882Z,90.42
2024-04-12T18:00:09.302Z,91.17
2024-04-12T18:02:37.074Z,92.41
2024-04-12T18:05:04.838Z,91.21
2024-04-12T18:07:32.469Z,94.03
2024-04-12T18:10:00.627Z,96.91
2024-04-12T18:12:28.164Z,95.11
2024-04-12T18:14:55.716Z,93.10
2024-04-12T18:17:23.222Z,95.95
2024-04-12T18:19:50.680Z,91.36
2024-04-12T18:22:18.102Z,92.40
2024-04-12T18:24:47.563Z,89.11
2024-04-12T18:27:17.665Z,90.69
2024-04-12T18:29:48.667Z,92.59
2024-04-12T18:32:16.163Z,93.14
2024-04-12T18:34:46.134Z,91.90
2024-04-12T18:37:33.836Z,94.74
2024-04-12T18:40:20.111Z,93.17
2024-04-12T18:43:06.503Z,91.96
2024-04-12T18:45:34.147Z,91.30
2024-04-12T18:48:02.258Z,90.74
2024-04-12T18:50:29.840Z,88.82
2024-04-12T18:52:57.301Z,88.14
2024-04-12T18:55:26.108Z,91.70
2024-04-12T18:57:53.659Z,93.50
2024-04-12T19:00:21.719Z,91.68
2024-04-12T19:02:49.586Z,93.53
2024-04-12T19:05:17.276Z,95.26
2024-04-12T19:07:44.943Z,96.89
2024-04-12T19:10:12.629Z,99.70
2024-04-12T19:12:40.759Z,100.00
2024-04-12T19:15:13.382Z,100.00
2024-04-12T19:17:40.926Z,100.00
2024-04-12T19:20:08.843Z,100.00
2024-04-12T19:22:36.318Z,100.00
2024-04-12T19:25:05.403Z,100.00
2024-04-12T19:27:34.828Z,100.00
2024-04-12T19:30:02.434Z,100.00
2024-04-12T19:32:30.072Z,100.00
2024-04-12T19:34:57.566Z,100.00
2024-04-12T19:37:25.046Z,100.00
2024-04-12T19:39:53.398Z,100.00
2024-04-12T19:42:20.908Z,100.00
2024-04-12T19:44:48.377Z,100.00
2024-04-12T19:47:15.827Z,100.00
2024-04-12T19:49:44.046Z,100.00
2024-04-12T19:52:11.660Z,100.00
2024-04-12T19:54:39.159Z,100.00
2024-04-12T19:57:07.184Z,100.00
2024-04-12T19:59:34.959Z,100.00
2024-04-12T20:02:02.475Z,100.00
2024-04-12T20:04:32.170Z,100.00
2024-04-12T20:06:59.650Z,100.00
2024-04-12T20:09:28.391Z,100.00
2024-04-12T20:11:56.048Z,100.00
2024-04-12T20:14:25.037Z,100.00
2024-04-12T20:16:52.869Z,100.00
2024-04-12T20:19:20.813Z,100.00
2024-04-12T20:21:48.916Z,100.00
2024-04-12T20:24:16.449Z,100.00
2024-04-12T20:26:47.396Z,100.00
2024-04-12T20:29:18.043Z,100.00
2024-04-12T20:31:56.724Z,100.00
2024-04-12T20:34:42.922Z,100.00
2024-04-12T20:37:10.422Z,100.00
2024-04-12T20:39:39.503Z,100.00
2024-04-12T20:42:07.222Z,100.00
2024-04-12T20:44:34.699Z,100.00
2024-04-12T20:47:02.301Z,100.00
2024-04-12T20:49:30.139Z,100.00
2024-04-12T20:51:57.752Z,100.00
2024-04-12T20:54:25.266Z,100.00
2024-04-12T20:56:52.781Z,100.00
2024-04-12T20:59:20.614Z,100.00
2024-04-12T21:01:51.904Z,100.00
2024-04-12T21:04:21.103Z,100.00
2024-04-12T21:06:49.989Z,100.00
2024-04-12T21:09:18.296Z,100.00
2024-04-12T21:11:46.730Z,100.00
2024-04-12T21:14:14.968Z,100.00
2024-04-12T21:16:44.539Z,100.00
2024-04-12T21:19:13.386Z,100.00
2024-04-12T21:21:41.089Z,100.00
2024-04-12T21:24:10.880Z,100.00
2024-04-12T21:26:38.519Z,100.00
2024-04-12T21:29:06.050Z,100.00
2024-04-12T21:31:33.574Z,100.00
2024-04-12T21:34:01.261Z,100.00
2024-04-12T21:36:28.874Z,100.00
2024-04-12T21:38:59.367Z,100.00
2024-04-12T21:41:27.238Z,100.00
2024-04-12T21:43:55.897Z,100.00
2024-04-12T21:46:25.291Z,100.00
2024-04-12T21:48:54.989Z,100.00
2024-04-12T21:51:32.077Z,100.00
2024-04-12T21:54:01.573Z,100.00
2024-04-12T21:56:29.280Z,100.00
2024-04-12T21:58:56.759Z,100.00
2024-04-12T22:01:24.350Z,100.00
2024-04-12T22:03:52.721Z,100.00
2024-04-12T22:06:20.299Z,100.00
2024-04-12T22:08:49.350Z,100.00
2024-04-12T22:11:16.779Z,100.00
2024-04-12T22:13:45.018Z,100.00
2024-04-12T22:16:13.919Z,100.00
2024-04-12T22:18:42.365Z,100.00
2024-04-12T22:21:15.693Z,100.00
2024-04-12T22:23:46.355Z,100.00
2024-04-12T22:26:16.598Z,100.00
2024-04-12T22:28:46.450Z,100.00
2024-04-12T22:31:18.808Z,100.00
2024-04-12T22:33:53.679Z,100.00
2024-04-12T22:36:22.886Z,100.00
2024-04-12T22:38:51.621Z,100.00
2024-04-12T22:41:20.445Z,100.00
2024-04-12T22:43:48.895Z,100.00
2024-04-12T22:46:16.649Z,100.00
2024-04-12T22:48:46.487Z,100.00
2024-04-12T22:51:25.502Z,100.00
2024-04-12T22:53:53.843Z,100.00
2024-04-12T22:56:26.159Z,100.00
2024-04-12T22:58:57.264Z,100.00
2024-04-12T23:01:28.479Z,100.00
2024-04-12T23:03:57.543Z,100.00
2024-04-12T23:06:25.407Z,100.00
2024-04-12T23:08:53.072Z,100.00
2024-04-12T23:11:20.547Z,100.00
2024-04-12T23:13:48.040Z,100.00
2024-04-12T23:16:15.731Z,100.00
2024-04-12T23:18:43.387Z,100.00
2024-04-12T23:21:11.189Z,100.00
2024-04-12T23:23:38.671Z,100.00
2024-04-12T23:26:07.418Z,100.00
2024-04-12T23:28:34.948Z,100.00
2024-04-12T23:31:02.503Z,100.00
2024-04-12T23:33:31.213Z,100.00
2024-04-12T23:35:59.775Z,100.00
2024-04-12T23:38:27.324Z,100.00
2024-04-12T23:40:54.831Z,100.00
2024-04-12T23:43:24.664Z,100.00
2024-04-12T23:45:52.490Z,100.00
2024-04-12T23:48:20.107Z,100.00
2024-04-12T23:50:47.631Z,100.00
2024-04-12T23:53:15.342Z,100.00
2024-04-12T23:55:42.781Z,100.00
2024-04-12T23:58:10.235Z,100.00
